createdAt,value
2023-04-24T00:01:25.526Z,92.37
2023-04-24T00:03:55.446Z,92.56
2023-04-24T00:06:24.734Z,92.31
2023-04-24T00:08:53.802Z,92.29
2023-04-24T00:11:22.241Z,92.21
2023-04-24T00:13:50.801Z,92.12
2023-04-24T00:16:19.992Z,91.92
2023-04-24T00:18:49.100Z,92.27
2023-04-24T00:21:19.501Z,92.61
2023-04-24T00:23:47.982Z,91.98
2023-04-24T00:26:16.603Z,91.71
2023-04-24T00:28:44.997Z,91.73
2023-04-24T00:31:13.475Z,91.75
2023-04-24T00:33:41.890Z,91.95
2023-04-24T00:36:11.207Z,91.94
2023-04-24T00:38:41.616Z,91.71
2023-04-24T00:41:10.072Z,91.77
2023-04-24T00:43:38.445Z,91.60
2023-04-24T00:46:07.162Z,91.38
2023-04-24T00:48:36.094Z,91.57
2023-04-24T00:51:04.959Z,91.40
2023-04-24T00:53:33.732Z,91.63
2023-04-24T00:56:04.672Z,91.45
2023-04-24T00:58:33.624Z,91.18
2023-04-24T01:01:03.628Z,91.42
2023-04-24T01:03:33.881Z,91.51
2023-04-24T01:06:02.779Z,91.49
2023-04-24T01:08:31.560Z,91.48
2023-04-24T01:11:00.515Z,91.47
2023-04-24T01:13:30.663Z,91.32
2023-04-24T01:15:59.754Z,91.08
2023-04-24T01:18:28.975Z,91.16
2023-04-24T01:21:00.763Z,91.65
2023-04-24T01:23:30.754Z,91.84
2023-04-24T01:25:59.620Z,91.64
2023-04-24T01:28:28.443Z,91.50
2023-04-24T01:30:57.121Z,91.66
2023-04-24T01:33:26.100Z,91.80
2023-04-24T01:35:54.832Z,91.80
2023-04-24T01:38:23.438Z,91.80
2023-04-24T01:40:54.216Z,91.67
2023-04-24T01:43:23.573Z,92.03
2023-04-24T01:45:53.165Z,91.94
2023-04-24T01:48:22.150Z,91.87
2023-04-24T01:50:51.038Z,91.91
2023-04-24T01:53:19.784Z,92.10
2023-04-24T01:55:52.413Z,92.08
2023-04-24T01:58:23.559Z,91.91
2023-04-24T02:00:52.251Z,91.86
2023-04-24T02:03:23.794Z,92.00
2023-04-24T02:05:53.024Z,91.78
2023-04-24T02:08:22.236Z,91.78
2023-04-24T02:10:50.857Z,91.68
2023-04-24T02:13:19.743Z,91.94
2023-04-24T02:15:51.824Z,91.60
2023-04-24T02:18:20.306Z,91.87
2023-04-24T02:20:48.796Z,91.76
2023-04-24T02:23:17.183Z,91.52
2023-04-24T02:25:45.929Z,91.47
2023-04-24T02:28:14.312Z,91.45
2023-04-24T02:30:42.784Z,91.50
2023-04-24T02:33:13.360Z,91.80
2023-04-24T02:35:41.768Z,91.52
2023-04-24T02:38:10.248Z,91.46
2023-04-24T02:40:38.755Z,91.54
2023-04-24T02:43:08.742Z,91.57
2023-04-24T02:45:37.279Z,91.65
2023-04-24T02:48:06.250Z,91.77
2023-04-24T02:50:38.374Z,91.70
2023-04-24T02:53:07.766Z,91.82
2023-04-24T02:55:36.876Z,91.59
2023-04-24T02:58:07.622Z,91.91
2023-04-24T03:00:36.801Z,92.17
2023-04-24T03:03:11.068Z,91.58
2023-04-24T03:05:42.905Z,91.90
2023-04-24T03:08:12.692Z,91.94
2023-04-24T03:10:42.127Z,91.68
2023-04-24T03:13:11.077Z,91.39
2023-04-24T03:15:40.632Z,91.76
2023-04-24T03:18:12.609Z,91.67
2023-04-24T03:20:45.252Z,91.33
2023-04-24T03:23:15.748Z,91.40
2023-04-24T03:25:45.342Z,90.97
2023-04-24T03:28:14.518Z,91.20
2023-04-24T03:30:47.779Z,91.38
2023-04-24T03:33:18.202Z,91.30
2023-04-24T03:35:50.793Z,91.56
2023-04-24T03:38:24.678Z,91.54
2023-04-24T03:40:56.936Z,91.54
2023-04-24T03:43:28.545Z,90.93
2023-04-24T03:45:58.238Z,91.44
2023-04-24T03:48:28.887Z,91.01
2023-04-24T03:51:00.500Z,91.05
2023-04-24T03:53:31.590Z,91.19
2023-04-24T03:56:03.164Z,91.21
2023-04-24T03:58:45.806Z,90.76
2023-04-24T04:01:17.266Z,90.80
2023-04-24T04:03:47.749Z,90.82
2023-04-24T04:06:20.143Z,91.05
2023-04-24T04:08:49.671Z,90.94
2023-04-24T04:11:20.567Z,90.75
2023-04-24T04:13:52.393Z,90.86
2023-04-24T04:16:26.527Z,90.56
2023-04-24T04:18:56.742Z,90.55
2023-04-24T04:21:30.203Z,90.65
2023-04-24T04:24:01.981Z,90.35
2023-04-24T04:26:33.608Z,90.35
2023-04-24T04:29:05.097Z,90.47
2023-04-24T04:31:35.576Z,90.54
2023-04-24T04:34:05.981Z,90.50
2023-04-24T04:36:40.166Z,90.71
2023-04-24T04:39:12.565Z,90.31
2023-04-24T04:41:43.000Z,90.67
2023-04-24T04:44:14.717Z,90.53
2023-04-24T04:46:44.057Z,90.31
2023-04-24T04:49:18.314Z,90.45
2023-04-24T04:51:50.572Z,90.58
2023-04-24T04:54:21.531Z,90.25
2023-04-24T04:56:53.083Z,90.67
2023-04-24T04:59:22.086Z,90.27
2023-04-24T05:01:51.903Z,90.67
2023-04-24T05:04:26.353Z,90.29
2023-04-24T05:06:59.498Z,90.33
2023-04-24T05:09:31.059Z,89.97
2023-04-24T05:12:00.249Z,90.05
2023-04-24T05:14:29.320Z,90.45
2023-04-24T05:17:02.402Z,90.85
2023-04-24T05:19:34.087Z,91.15
2023-04-24T05:22:11.378Z,91.43
2023-04-24T05:24:42.162Z,91.52
2023-04-24T05:27:13.518Z,91.65
2023-04-24T05:29:48.473Z,91.60
2023-04-24T05:32:20.449Z,92.01
2023-04-24T05:35:02.240Z,91.81
2023-04-24T05:37:38.395Z,91.82
2023-04-24T05:40:12.754Z,91.68
2023-04-24T05:42:48.016Z,92.01
2023-04-24T05:45:31.346Z,92.24
2023-04-24T05:48:14.855Z,91.87
2023-04-24T05:50:49.248Z,92.20
2023-04-24T05:53:27.919Z,92.30
2023-04-24T05:56:02.485Z,92.51
2023-04-24T05:58:39.702Z,92.63
2023-04-24T06:01:10.034Z,92.20
2023-04-24T06:03:49.511Z,92.06
2023-04-24T06:06:21.048Z,92.40
2023-04-24T06:09:16.652Z,92.51
2023-04-24T06:11:52.814Z,92.69
2023-04-24T06:14:35.652Z,92.92
2023-04-24T06:17:12.589Z,92.36
2023-04-24T06:19:58.179Z,92.41
2023-04-24T06:22:35.574Z,92.47
2023-04-24T06:25:11.675Z,92.47
2023-04-24T06:28:02.907Z,92.63
2023-04-24T06:30:35.066Z,92.71
2023-04-24T06:33:19.234Z,92.59
2023-04-24T06:36:13.032Z,92.70
2023-04-24T06:38:45.148Z,92.89
2023-04-24T06:41:21.917Z,92.64
2023-04-24T06:44:01.963Z,93.01
2023-04-24T06:46:31.850Z,93.22
2023-04-24T06:49:07.267Z,93.08
2023-04-24T06:51:41.847Z,92.84
2023-04-24T06:54:10.852Z,93.05
2023-04-24T06:56:41.552Z,93.41
2023-04-24T06:59:10.654Z,93.35
2023-04-24T07:01:44.120Z,93.27
2023-04-24T07:04:14.413Z,93.36
2023-04-24T07:06:44.064Z,93.24
2023-04-24T07:09:14.843Z,93.41
2023-04-24T07:14:39.615Z,93.83
2023-04-24T07:17:09.870Z,93.37
2023-04-24T07:19:38.899Z,93.57
2023-04-24T07:22:12.701Z,93.53
2023-04-24T07:24:42.426Z,93.52
2023-04-24T07:27:16.370Z,93.62
2023-04-24T07:29:46.757Z,93.71
2023-04-24T07:32:16.579Z,93.67
2023-04-24T07:34:46.272Z,93.59
2023-04-24T07:37:15.385Z,93.39
2023-04-24T07:39:45.066Z,93.71
2023-04-24T07:42:21.747Z,93.96
2023-04-24T07:45:00.184Z,93.95
2023-04-24T07:47:30.778Z,94.18
2023-04-24T07:50:00.427Z,94.06
2023-04-24T07:52:29.362Z,94.94
2023-04-24T07:55:08.246Z,93.81
2023-04-24T07:57:39.402Z,94.59
2023-04-24T08:00:11.051Z,94.66
2023-04-24T08:02:40.462Z,94.55
2023-04-24T08:05:12.217Z,94.70
2023-04-24T08:07:44.597Z,94.50
2023-04-24T08:10:13.531Z,94.74
2023-04-24T08:12:46.668Z,94.72
2023-04-24T08:15:17.708Z,95.01
2023-04-24T08:17:47.348Z,94.67
2023-04-24T08:20:17.146Z,94.68
2023-04-24T08:22:51.359Z,95.16
2023-04-24T08:25:21.029Z,94.70
2023-04-24T08:27:52.155Z,94.65
2023-04-24T08:30:33.534Z,94.87
2023-04-24T08:33:03.837Z,94.74
2023-04-24T08:35:33.242Z,94.86
2023-04-24T08:38:04.928Z,94.97
2023-04-24T08:40:37.838Z,95.18
2023-04-24T08:43:10.494Z,95.14
2023-04-24T08:45:39.989Z,94.62
2023-04-24T08:48:16.781Z,95.01
2023-04-24T08:50:52.147Z,94.58
2023-04-24T08:53:23.575Z,94.44
2023-04-24T08:55:53.941Z,94.42
2023-04-24T08:58:26.462Z,94.78
2023-04-24T09:00:59.545Z,95.03
2023-04-24T09:03:31.246Z,94.54
2023-04-24T09:06:01.872Z,94.99
2023-04-24T09:08:34.359Z,94.95
2023-04-24T09:11:04.802Z,94.69
2023-04-24T09:13:36.285Z,95.30
2023-04-24T09:16:07.865Z,94.53
2023-04-24T09:18:36.832Z,94.92
2023-04-24T09:21:13.106Z,94.80
2023-04-24T09:23:47.221Z,94.58
2023-04-24T09:26:17.243Z,94.76
2023-04-24T09:28:48.393Z,94.76
2023-04-24T09:31:23.646Z,94.91
2023-04-24T09:34:09.537Z,94.31
2023-04-24T09:36:42.046Z,94.79
2023-04-24T09:39:13.734Z,94.13
2023-04-24T09:41:48.089Z,94.81
2023-04-24T09:44:22.507Z,94.18
2023-04-24T09:46:56.075Z,94.66
2023-04-24T09:49:33.653Z,93.98
2023-04-24T09:52:08.551Z,94.29
2023-04-24T09:54:40.517Z,94.13
2023-04-24T09:57:12.661Z,94.12
2023-04-24T09:59:49.531Z,93.99
2023-04-24T10:02:23.286Z,93.79
2023-04-24T10:05:01.710Z,94.04
2023-04-24T10:07:31.104Z,94.42
2023-04-24T10:10:02.912Z,93.77
2023-04-24T10:12:35.708Z,93.89
2023-04-24T10:15:08.742Z,94.32
2023-04-24T10:17:41.693Z,94.28
2023-04-24T10:20:12.524Z,94.40
2023-04-24T10:22:42.359Z,94.07
2023-04-24T10:25:12.989Z,94.02
2023-04-24T10:27:42.503Z,93.56
2023-04-24T10:30:23.683Z,93.56
2023-04-24T10:32:54.118Z,94.42
2023-04-24T10:35:28.096Z,94.05
2023-04-24T10:38:00.954Z,94.05
2023-04-24T10:40:34.009Z,93.98
2023-04-24T10:43:09.531Z,92.78
2023-04-24T10:45:41.306Z,93.57
2023-04-24T10:48:15.043Z,92.89
2023-04-24T10:50:50.025Z,92.83
2023-04-24T10:53:21.020Z,92.56
2023-04-24T10:55:52.201Z,92.28
2023-04-24T10:58:26.842Z,92.63
2023-04-24T11:01:02.810Z,92.14
2023-04-24T11:03:35.551Z,91.93
2023-04-24T11:06:06.908Z,91.65
2023-04-24T11:08:46.005Z,92.16
2023-04-24T11:11:18.298Z,92.22
2023-04-24T11:14:10.342Z,92.23
2023-04-24T11:16:48.214Z,91.94
2023-04-24T11:19:27.727Z,91.84
2023-04-24T11:22:03.276Z,90.84
2023-04-24T11:24:41.761Z,90.61
2023-04-24T11:27:16.311Z,90.60
2023-04-24T11:29:48.586Z,89.90
2023-04-24T11:32:29.667Z,90.22
2023-04-24T11:35:02.920Z,89.13
2023-04-24T11:37:39.469Z,89.92
2023-04-24T11:40:12.698Z,88.92
2023-04-24T11:42:46.528Z,89.25
2023-04-24T11:45:18.658Z,88.64
2023-04-24T11:47:52.190Z,87.89
2023-04-24T11:50:24.377Z,87.20
2023-04-24T11:52:56.816Z,86.74
2023-04-24T11:55:29.483Z,86.12
2023-04-24T11:58:03.590Z,85.05
2023-04-24T12:00:35.836Z,84.44
2023-04-24T12:03:11.545Z,84.27
2023-04-24T12:05:43.046Z,84.07
2023-04-24T12:08:12.466Z,83.95
2023-04-24T12:10:42.109Z,83.74
2023-04-24T12:13:13.464Z,83.13
2023-04-24T12:15:45.342Z,82.80
2023-04-24T12:18:18.232Z,81.85
2023-04-24T12:20:50.584Z,81.11
2023-04-24T12:23:37.086Z,81.11
2023-04-24T12:26:07.376Z,80.87
2023-04-24T12:28:48.979Z,80.63
2023-04-24T12:31:18.846Z,80.08
2023-04-24T12:33:49.971Z,80.04
2023-04-24T12:36:20.896Z,79.68
2023-04-24T12:38:57.883Z,79.80
2023-04-24T12:41:36.664Z,79.36
2023-04-24T12:44:08.689Z,79.41
2023-04-24T12:46:38.342Z,79.07
2023-04-24T12:49:16.766Z,78.90
2023-04-24T12:51:55.011Z,78.32
2023-04-24T12:54:27.452Z,78.12
2023-04-24T12:57:04.157Z,78.25
2023-04-24T12:59:33.488Z,77.75
2023-04-24T13:02:08.550Z,77.47
2023-04-24T13:04:39.582Z,77.32
2023-04-24T13:07:09.578Z,76.84
2023-04-24T13:09:39.161Z,76.67
2023-04-24T13:12:09.562Z,76.92
2023-04-24T13:14:39.731Z,76.77
2023-04-24T13:17:11.068Z,76.83
2023-04-24T13:19:46.557Z,76.31
2023-04-24T13:22:16.725Z,75.87
2023-04-24T13:24:46.265Z,75.42
2023-04-24T13:27:18.179Z,75.29
2023-04-24T13:29:48.383Z,75.64
2023-04-24T13:32:18.217Z,75.83
2023-04-24T13:34:50.574Z,75.61
2023-04-24T13:37:20.505Z,75.48
2023-04-24T13:39:49.519Z,75.79
2023-04-24T13:42:20.074Z,75.72
2023-04-24T13:44:49.435Z,75.56
2023-04-24T13:47:22.491Z,75.50
2023-04-24T13:49:56.022Z,75.65
2023-04-24T13:52:25.079Z,75.19
2023-04-24T13:54:59.555Z,75.23
2023-04-24T13:57:30.221Z,75.85
2023-04-24T14:00:04.410Z,75.50
2023-04-24T14:02:34.057Z,75.74
2023-04-24T14:05:05.674Z,75.66
2023-04-24T14:07:36.288Z,75.61
2023-04-24T14:10:05.679Z,75.78
2023-04-24T14:12:34.841Z,75.43
2023-04-24T14:15:03.768Z,75.01
2023-04-24T14:17:32.562Z,74.99
2023-04-24T14:20:08.148Z,74.89
2023-04-24T14:22:38.145Z,75.09
2023-04-24T14:25:09.009Z,74.50
2023-04-24T14:27:38.690Z,74.80
2023-04-24T14:30:10.249Z,74.72
2023-04-24T14:32:39.295Z,74.72
2023-04-24T14:35:15.977Z,75.05
2023-04-24T14:37:45.308Z,75.03
2023-04-24T14:40:33.738Z,75.60
2023-04-24T14:43:05.029Z,77.35
2023-04-24T14:45:35.343Z,78.36
2023-04-24T14:48:05.248Z,78.17
2023-04-24T14:50:36.829Z,79.17
2023-04-24T14:53:07.144Z,78.86
2023-04-24T14:55:37.999Z,80.07
2023-04-24T14:58:10.458Z,79.72
2023-04-24T15:00:41.184Z,79.89
2023-04-24T15:03:11.952Z,80.62
2023-04-24T15:05:43.092Z,80.49
2023-04-24T15:08:13.345Z,79.42
2023-04-24T15:10:43.067Z,79.58
2023-04-24T15:13:13.822Z,79.45
2023-04-24T15:15:43.025Z,78.89
2023-04-24T15:18:13.361Z,79.08
2023-04-24T15:20:43.986Z,78.47
2023-04-24T15:23:14.793Z,78.97
2023-04-24T15:25:44.146Z,79.28
2023-04-24T15:28:14.102Z,79.33
2023-04-24T15:30:43.611Z,78.76
2023-04-24T15:33:12.671Z,79.35
2023-04-24T15:35:44.365Z,79.87
2023-04-24T15:38:13.237Z,79.45
2023-04-24T15:40:42.020Z,79.80
2023-04-24T15:43:14.400Z,79.67
2023-04-24T15:45:43.608Z,79.09
2023-04-24T15:48:13.059Z,79.27
2023-04-24T15:50:44.015Z,79.29
2023-04-24T15:53:13.054Z,79.97
2023-04-24T15:55:41.515Z,80.01
2023-04-24T15:58:09.937Z,79.59
2023-04-24T16:00:38.313Z,80.02
2023-04-24T16:03:09.299Z,79.63
2023-04-24T16:05:38.558Z,80.86
2023-04-24T16:08:08.875Z,81.69
2023-04-24T16:10:37.374Z,81.89
2023-04-24T16:13:07.394Z,81.91
2023-04-24T16:15:37.802Z,83.07
2023-04-24T16:18:08.542Z,83.46
2023-04-24T16:20:37.510Z,83.17
2023-04-24T16:23:07.940Z,83.60
2023-04-24T16:25:37.303Z,83.87
2023-04-24T16:28:07.053Z,83.97
2023-04-24T16:30:37.333Z,85.01
2023-04-24T16:33:09.440Z,84.17
2023-04-24T16:35:41.484Z,85.64
2023-04-24T16:38:13.307Z,85.16
2023-04-24T16:40:43.023Z,85.77
2023-04-24T16:43:11.737Z,84.71
2023-04-24T16:45:41.100Z,85.17
2023-04-24T16:48:11.618Z,85.83
2023-04-24T16:50:40.255Z,86.24
2023-04-24T16:53:10.696Z,86.18
2023-04-24T16:55:40.701Z,85.81
2023-04-24T16:58:10.196Z,86.18
2023-04-24T17:00:38.994Z,86.74
2023-04-24T17:03:12.881Z,86.88
2023-04-24T17:05:43.011Z,86.88
2023-04-24T17:08:13.254Z,86.43
2023-04-24T17:10:43.233Z,87.40
2023-04-24T17:13:14.865Z,87.74
2023-04-24T17:15:46.567Z,87.49
2023-04-24T17:18:16.013Z,87.85
2023-04-24T17:20:45.935Z,87.13
2023-04-24T17:23:19.274Z,87.58
2023-04-24T17:25:49.290Z,87.08
2023-04-24T17:28:28.003Z,87.37
2023-04-24T17:30:58.659Z,88.17
2023-04-24T17:33:29.191Z,87.65
2023-04-24T17:35:59.886Z,87.49
2023-04-24T17:38:31.901Z,88.32
2023-04-24T17:41:01.859Z,88.25
2023-04-24T17:43:31.868Z,88.96
2023-04-24T17:46:01.317Z,88.90
2023-04-24T17:48:32.156Z,88.90
2023-04-24T17:51:02.499Z,88.27
2023-04-24T17:53:34.499Z,88.52
2023-04-24T17:56:04.522Z,89.49
2023-04-24T17:58:35.668Z,89.08
2023-04-24T18:01:04.783Z,88.45
2023-04-24T18:03:34.143Z,89.13
2023-04-24T18:06:03.675Z,88.57
2023-04-24T18:08:35.961Z,88.21
2023-04-24T18:11:05.964Z,88.35
2023-04-24T18:13:35.055Z,87.96
2023-04-24T18:16:04.728Z,88.72
2023-04-24T18:18:34.064Z,88.00
2023-04-24T18:21:03.744Z,89.55
2023-04-24T18:23:35.628Z,89.19
2023-04-24T18:26:04.650Z,88.17
2023-04-24T18:28:35.668Z,89.30
2023-04-24T18:31:04.743Z,89.06
2023-04-24T18:33:37.364Z,89.09
2023-04-24T18:36:07.280Z,88.55
2023-04-24T18:38:39.291Z,88.72
2023-04-24T18:41:09.287Z,89.29
2023-04-24T18:43:45.220Z,89.54
2023-04-24T18:46:15.998Z,88.60
2023-04-24T18:48:45.665Z,89.47
2023-04-24T18:51:15.791Z,88.99
2023-04-24T18:53:48.640Z,90.08
2023-04-24T18:56:20.425Z,89.93
2023-04-24T18:58:55.861Z,89.08
2023-04-24T19:01:25.264Z,90.18
2023-04-24T19:03:57.561Z,89.11
2023-04-24T19:06:28.934Z,89.94
2023-04-24T19:08:59.903Z,90.38
2023-04-24T19:11:32.692Z,90.59
2023-04-24T19:14:07.179Z,90.51
2023-04-24T19:16:36.786Z,89.68
2023-04-24T19:19:07.065Z,90.07
2023-04-24T19:21:37.117Z,90.74
2023-04-24T19:24:10.431Z,89.66
2023-04-24T19:26:40.102Z,89.93
2023-04-24T19:29:09.932Z,90.60
2023-04-24T19:31:39.697Z,90.10
2023-04-24T19:34:18.232Z,90.45
2023-04-24T19:36:47.705Z,90.89
2023-04-24T19:39:18.901Z,91.03
2023-04-24T19:41:47.894Z,90.72
2023-04-24T19:44:17.449Z,90.55
2023-04-24T19:46:49.877Z,91.33
2023-04-24T19:49:23.677Z,91.63
2023-04-24T19:51:54.326Z,90.97
2023-04-24T19:54:27.251Z,91.01
2023-04-24T19:56:57.562Z,91.36
2023-04-24T19:59:27.392Z,91.66
2023-04-24T20:01:57.439Z,91.42
2023-04-24T20:04:27.470Z,91.12
2023-04-24T20:06:57.457Z,91.78
2023-04-24T20:09:31.227Z,91.49
2023-04-24T20:12:04.052Z,91.17
2023-04-24T20:14:34.011Z,91.73
2023-04-24T20:17:03.632Z,91.59
2023-04-24T20:19:33.964Z,91.76
2023-04-24T20:22:03.648Z,91.77
2023-04-24T20:24:35.834Z,91.51
2023-04-24T20:27:08.667Z,91.69
2023-04-24T20:29:37.686Z,91.69
2023-04-24T20:32:08.237Z,91.19
2023-04-24T20:34:44.971Z,91.31
2023-04-24T20:37:13.824Z,91.78
2023-04-24T20:39:46.556Z,91.24
2023-04-24T20:42:16.935Z,91.52
2023-04-24T20:44:47.326Z,91.44
2023-04-24T20:47:17.269Z,91.60
2023-04-24T20:49:49.274Z,91.66
2023-04-24T20:52:26.309Z,91.91
2023-04-24T20:55:00.002Z,91.03
2023-04-24T20:57:30.094Z,91.72
2023-04-24T21:00:00.411Z,92.18
2023-04-24T21:02:32.387Z,92.21
2023-04-24T21:05:01.694Z,91.80
2023-04-24T21:07:30.591Z,92.16
2023-04-24T21:10:05.101Z,91.89
2023-04-24T21:12:34.388Z,91.58
2023-04-24T21:15:09.543Z,91.98
2023-04-24T21:17:39.894Z,92.53
2023-04-24T21:20:12.635Z,92.05
2023-04-24T21:22:42.585Z,92.01
2023-04-24T21:25:13.517Z,92.58
2023-04-24T21:27:43.762Z,92.39
2023-04-24T21:30:14.997Z,92.31
2023-04-24T21:32:45.203Z,92.30
2023-04-24T21:35:14.383Z,92.43
2023-04-24T21:37:43.552Z,92.59
2023-04-24T21:40:16.264Z,92.71
2023-04-24T21:42:46.961Z,93.07
2023-04-24T21:45:16.109Z,92.71
2023-04-24T21:47:45.397Z,93.50
2023-04-24T21:50:14.814Z,91.79
2023-04-24T21:52:45.188Z,92.88
2023-04-24T21:55:16.488Z,92.59
2023-04-24T21:57:45.773Z,92.91
2023-04-24T22:00:15.164Z,92.68
2023-04-24T22:02:44.397Z,92.54
2023-04-24T22:05:16.017Z,92.70
2023-04-24T22:07:49.160Z,92.46
2023-04-24T22:10:22.589Z,92.62
2023-04-24T22:12:51.333Z,92.37
2023-04-24T22:15:26.593Z,92.57
2023-04-24T22:17:58.068Z,92.79
2023-04-24T22:20:29.399Z,92.42
2023-04-24T22:22:58.731Z,92.72
2023-04-24T22:25:33.527Z,92.13
2023-04-24T22:28:04.933Z,91.92
2023-04-24T22:30:34.237Z,92.29
2023-04-24T22:33:03.804Z,92.36
2023-04-24T22:35:33.298Z,92.26
2023-04-24T22:38:04.635Z,92.52
2023-04-24T22:40:38.171Z,91.48
2023-04-24T22:43:08.485Z,92.55
2023-04-24T22:45:37.405Z,91.46
2023-04-24T22:48:10.019Z,91.65
2023-04-24T22:50:39.901Z,91.93
2023-04-24T22:53:11.222Z,91.58
2023-04-24T22:55:42.657Z,91.58
2023-04-24T22:58:12.287Z,91.00
2023-04-24T23:00:42.432Z,91.33
2023-04-24T23:03:12.338Z,91.43
2023-04-24T23:05:42.441Z,91.21
2023-04-24T23:08:11.971Z,90.88
2023-04-24T23:10:46.100Z,90.98
2023-04-24T23:13:24.288Z,91.55
2023-04-24T23:16:00.574Z,90.50
2023-04-24T23:18:31.868Z,90.24
2023-04-24T23:21:02.506Z,90.42
2023-04-24T23:23:37.762Z,90.98
2023-04-24T23:26:08.480Z,90.38
2023-04-24T23:28:40.076Z,90.27
2023-04-24T23:31:10.070Z,89.67
2023-04-24T23:33:40.339Z,89.98
2023-04-24T23:36:10.885Z,88.57
2023-04-24T23:38:49.456Z,89.06
2023-04-24T23:41:23.816Z,89.04
2023-04-24T23:43:54.300Z,89.06
2023-04-24T23:46:26.312Z,89.04
2023-04-24T23:48:57.888Z,88.76
2023-04-24T23:51:30.034Z,88.61
2023-04-24T23:54:00.579Z,88.76
2023-04-24T23:56:40.602Z,88.78
2023-04-24T23:59:10.046Z,89.33
